Thunderstorms From: 26-05-2018 09:00 Until: 27-05-2018 05:00 warning for: Thunderstorms Level: Yellow info button

Although rather usual in this region, locally or potentially dangerous phenomena are expected. (such as local winds, summer thunderstorms, rising streams or high waves) Be aware and pay attention to the latest weather updates, especially if you carry out activities exposed to weather or close to a stream or shoreline. 


Meteo18 Weather Cam more information Meteo18 Weather Cam


warning for Thunderstorms more information blitzortung!


Rain radar more information rain snow radar


Visit our other weather sites:

Template documentation
and downloads

And another site



Weather Underground History page Text

Daily Summary for Nil La, TWC- Units:  Metric    English   Both
« Previous Day
Next Day »
Daily Weekly Monthly Yearly Custom
  High: Low: Average:
Temperature: -17.8 °C -9.3 °C -7 °C
Dew Point: -17.8 °C -9.9 °C -9.1 °C
Humidity: Humidity % 52 % 80 %
Wind Speed: 0 km/h 0 km/h 5 km/h
Wind Gust: 0 km/h - -
Wind:- - ESE
Pressure: 0 hPa 34327.3 hPa -
Precipitation: 0 mm    
Historical Graphs
 
 
Tabular Data for Nil La, TWC-
Time Temperature Dew Point Pressure Wind Wind Speed Wind Gust Humidity Rainfall Rate (Hourly)
-17.8 °C -17.8 °C 0 hPa Calm     Humidity % 0 mm
00:01 -8 °C -8.8 °C 34384.8 hPa NNE 5.1 km/h 7.7 km/h 91 % 0 mm
00:07 -8.1 °C -8.9 °C 34371.3 hPa North 10.3 km/h 10.3 km/h 91 % 0 mm
00:13 -8 °C -8.8 °C 34371.3 hPa NNE 7.6 km/h 20.8 km/h 91 % 0 mm
00:19 -8 °C -9 °C 34384.8 hPa NE 7.6 km/h 12.9 km/h 89 % 0 mm
00:25 -8 °C -9 °C 34384.8 hPa North 5.1 km/h 10.3 km/h 89 % 0 mm
00:31 -8.1 °C -9.1 °C 34384.8 hPa North 7.6 km/h 15.6 km/h 89 % 0 mm
00:37 -8.1 °C -9.1 °C 34371.3 hPa NNE 7.6 km/h 12.9 km/h 89 % 0 mm
00:43 -8.1 °C -9.1 °C 34371.3 hPa NNW 7.6 km/h 15.6 km/h 90 % 0 mm
00:49 -8.1 °C -9.1 °C 34371.3 hPa NE 15.6 km/h 20.8 km/h 90 % 0 mm
00:55 -8.1 °C -9 °C 34371.3 hPa NNE 17.9 km/h 18.2 km/h 90 % 0 mm
01:01 -8.1 °C -9 °C 34371.3 hPa NNW 15.6 km/h 20.8 km/h 90 % 0 mm
01:07 -8.1 °C -9.1 °C 34371.3 hPa ENE 10.3 km/h 12.9 km/h 89 % 0 mm
01:13 -8.1 °C -9.1 °C 34384.8 hPa NNE 5.1 km/h 10.3 km/h 90 % 0 mm
01:19 -8.2 °C -9.1 °C 34384.8 hPa NE 15.6 km/h 18.2 km/h 90 % 0 mm
01:25 -8.2 °C -9 °C 34371.3 hPa NNE 7.6 km/h 18.2 km/h 91 % 0 mm
01:31 -8.2 °C -9 °C 34371.3 hPa NE 7.6 km/h 12.9 km/h 91 % 0 mm
01:37 -8.2 °C -9.1 °C 34371.3 hPa NNE 7.6 km/h 10.3 km/h 91 % 0 mm
01:44 -8.3 °C -9.1 °C 34371.3 hPa NE 5.1 km/h 10.3 km/h 92 % 0 mm
01:50 -8.4 °C -9.1 °C 34371.3 hPa North 5.1 km/h 5.1 km/h 92 % 0 mm
01:56 -8.4 °C -9.1 °C 34371.3 hPa NNE 2.3 km/h 7.7 km/h 92 % 0 mm
02:02 -8.4 °C -9.2 °C 34371.3 hPa NNE 5.1 km/h 7.7 km/h 92 % 0 mm
02:08 -8.4 °C -9.1 °C 34371.3 hPa North 5.1 km/h 10.3 km/h 93 % 0 mm
02:14 -8.4 °C -9.1 °C 34371.3 hPa North 2.3 km/h 10.3 km/h 93 % 0 mm
02:20 -8.4 °C -9.1 °C 34361.1 hPa Calm   10.3 km/h 93 % 0 mm
02:26 -8.4 °C -9.1 °C 34361.1 hPa North 5.1 km/h 10.3 km/h 93 % 0 mm
02:32 -8.4 °C -9.1 °C 34361.1 hPa NNW 5.1 km/h 7.7 km/h 93 % 0 mm
02:38 -8.4 °C -9.1 °C 34361.1 hPa North 2.3 km/h 7.7 km/h 93 % 0 mm
02:44 -8.4 °C -9.1 °C 34361.1 hPa NNE 2.3 km/h 7.7 km/h 93 % 0 mm
02:50 -8.5 °C -9.1 °C 34361.1 hPa NNE 5.1 km/h 7.7 km/h 93 % 0 mm
02:56 -8.5 °C -9.1 °C 34361.1 hPa Calm   2.6 km/h 93 % 0 mm
03:02 -8.5 °C -9.1 °C 34361.1 hPa Calm   2.6 km/h 93 % 0 mm
03:08 -8.5 °C -9.1 °C 34361.1 hPa Calm   5.1 km/h 93 % 0 mm
03:14 -8.6 °C -9.2 °C 34361.1 hPa Calm   2.6 km/h 93 % 0 mm
03:20 -8.6 °C -9.2 °C 34361.1 hPa Calm     93 % 0 mm
03:26 -8.7 °C -9.3 °C 34347.6 hPa Calm   2.6 km/h 93 % 0 mm
03:32 -8.7 °C -9.3 °C 34347.6 hPa NW 2.3 km/h 2.6 km/h 93 % 0 mm
03:38 -8.7 °C -9.3 °C 34347.6 hPa Calm     93 % 0 mm
03:44 -8.7 °C -9.3 °C 34347.6 hPa Calm   2.6 km/h 93 % 0 mm
03:50 -8.7 °C -9.3 °C 34347.6 hPa Calm   2.6 km/h 93 % 0 mm
03:56 -8.7 °C -9.3 °C 34347.6 hPa Calm   2.6 km/h 93 % 0 mm
04:02 -8.7 °C -9.3 °C 34347.6 hPa North 2.3 km/h 5.1 km/h 93 % 0 mm
04:08 -8.7 °C -9.3 °C 34347.6 hPa Calm   7.7 km/h 93 % 0 mm
04:14 -8.7 °C -9.3 °C 34347.6 hPa Calm   2.6 km/h 93 % 0 mm
04:20 -8.8 °C -9.4 °C 34347.6 hPa Calm     93 % 0 mm
04:26 -8.8 °C -9.4 °C 34347.6 hPa Calm   2.6 km/h 93 % 0 mm
04:32 -8.8 °C -9.4 °C 34347.6 hPa NNE 2.3 km/h 7.7 km/h 93 % 0 mm
04:38 -8.7 °C -9.3 °C 34337.4 hPa NNE 12.7 km/h 18.2 km/h 94 % 0 mm
04:44 -8.7 °C -9.4 °C 34337.4 hPa NNE 12.7 km/h 15.6 km/h 92 % 0 mm
04:50 -8.6 °C -9.3 °C 34337.4 hPa NE 10.3 km/h 15.6 km/h 92 % 0 mm
04:56 -8.6 °C -9.4 °C 34337.4 hPa NE 15.6 km/h 15.6 km/h 91 % 0 mm
05:03 -8.6 °C -9.4 °C 34337.4 hPa NE 12.7 km/h 18.2 km/h 91 % 0 mm
05:09 -8.6 °C -9.4 °C 34337.4 hPa NNE 15.6 km/h 15.6 km/h 91 % 0 mm
05:15 -8.6 °C -9.4 °C 34327.3 hPa NE 10.3 km/h 15.6 km/h 91 % 0 mm
05:21 -8.7 °C -9.5 °C 34327.3 hPa ENE 2.3 km/h 12.9 km/h 91 % 0 mm
05:27 -8.7 °C -9.5 °C 34327.3 hPa NE 5.1 km/h 7.7 km/h 91 % 0 mm
05:33 -8.7 °C -9.6 °C 34337.4 hPa Calm   2.6 km/h 90 % 0 mm
05:39 -8.9 °C -9.7 °C 34327.3 hPa West 2.3 km/h 2.6 km/h 91 % 0 mm
05:45 -9.1 °C -9.9 °C 34337.4 hPa Calm   2.6 km/h 91 % 0 mm
05:51 -9.2 °C -9.9 °C 34327.3 hPa Calm   2.6 km/h 92 % 0 mm
05:57 -9.3 °C -9.9 °C 34337.4 hPa WNW 2.3 km/h 2.6 km/h 93 % 0 mm
06:03 -9.3 °C -9.9 °C 34337.4 hPa West 2.3 km/h 2.6 km/h 94 % 0 mm
06:09 -9.3 °C -9.8 °C 34337.4 hPa Calm     94 % 0 mm
06:15 -9.2 °C -9.8 °C 34337.4 hPa North 2.3 km/h 7.7 km/h 94 % 0 mm
06:21 -9.2 °C -9.8 °C 34337.4 hPa North 2.3 km/h 5.1 km/h 94 % 0 mm
06:27 -9.2 °C -9.8 °C 34337.4 hPa Calm   7.7 km/h 93 % 0 mm
06:33 -9.2 °C -9.8 °C 34337.4 hPa North 2.3 km/h 5.1 km/h 93 % 0 mm
06:39 -9.2 °C -9.8 °C 34337.4 hPa Calm   2.6 km/h 93 % 0 mm
06:45 -9.2 °C -9.8 °C 34347.6 hPa NW 2.3 km/h 2.6 km/h 93 % 0 mm
06:51 -9.2 °C -9.8 °C 34347.6 hPa WNW 2.3 km/h 2.6 km/h 93 % 0 mm
06:57 -9.1 °C -9.7 °C 34347.6 hPa Calm   2.6 km/h 93 % 0 mm
07:03 -9.1 °C -9.8 °C 34347.6 hPa WNW 2.3 km/h 2.6 km/h 92 % 0 mm
07:09 -9.1 °C -9.7 °C 34361.1 hPa WNW 2.3 km/h 5.1 km/h 93 % 0 mm
07:15 -9.1 °C -9.7 °C 34361.1 hPa WNW 2.3 km/h 5.1 km/h 93 % 0 mm
07:21 -9.1 °C -9.7 °C 34361.1 hPa WNW 2.3 km/h 2.6 km/h 93 % 0 mm
07:27 -8.9 °C -9.5 °C 34361.1 hPa Calm   2.6 km/h 93 % 0 mm
07:33 -8.6 °C -9.2 °C 34371.3 hPa Calm   2.6 km/h 93 % 0 mm
07:40 -8.1 °C -9.1 °C 34371.3 hPa Calm     90 % 0 mm
07:46 -7.5 °C -8.5 °C 34371.3 hPa Calm     89 % 0 mm
07:52 -7.1 °C -8.6 °C 34371.3 hPa Calm     84 % 0 mm
07:58 -6.9 °C -8.8 °C 34371.3 hPa Calm     81 % 0 mm
08:04 -6.7 °C -9.1 °C 34384.8 hPa Calm   5.1 km/h 77 % 0 mm
08:10 -6.7 °C -8.9 °C 34384.8 hPa Calm   5.1 km/h 78 % 0 mm
08:16 -6.7 °C -8.9 °C 34384.8 hPa WSW 5.1 km/h 7.7 km/h 78 % 0 mm
08:22 -6.8 °C -8.9 °C 34384.8 hPa East 2.3 km/h 10.3 km/h 78 % 0 mm
08:28 -6.8 °C -8.8 °C 34384.8 hPa ESE 2.3 km/h 7.7 km/h 79 % 0 mm
08:34 -6.7 °C -8.7 °C 34395 hPa Calm   7.7 km/h 80 % 0 mm
08:40 -6.6 °C -8.4 °C 34395 hPa Calm   2.6 km/h 81 % 0 mm
08:46 -6.5 °C -8.5 °C 34395 hPa Calm   7.7 km/h 80 % 0 mm
08:52 -6.6 °C -8.4 °C 34384.8 hPa SE 2.3 km/h 7.7 km/h 81 % 0 mm
08:58 -6.6 °C -8.6 °C 34384.8 hPa ESE 2.3 km/h 7.7 km/h 80 % 0 mm
09:04 -6.5 °C -8.5 °C 34384.8 hPa Calm   2.6 km/h 80 % 0 mm
09:10 -6.4 °C -8.4 °C 34384.8 hPa SSW 5.1 km/h 5.1 km/h 80 % 0 mm
09:16 -6.5 °C -8.4 °C 34384.8 hPa Calm     81 % 0 mm
09:22 -6.6 °C -8.4 °C 34384.8 hPa East 7.6 km/h 7.7 km/h 81 % 0 mm
09:28 -6.8 °C -8.4 °C 34384.8 hPa Calm   7.7 km/h 83 % 0 mm
09:34 -6.6 °C -8.3 °C 34384.8 hPa Calm   2.6 km/h 83 % 0 mm
09:40 -6.4 °C -8.4 °C 34384.8 hPa East 2.3 km/h 5.1 km/h 80 % 0 mm
09:46 -6.2 °C -8.4 °C 34384.8 hPa Calm   5.1 km/h 78 % 0 mm
09:52 -6 °C -8.1 °C 34395 hPa SE 7.6 km/h 10.3 km/h 79 % 0 mm
09:58 -5.7 °C -7.9 °C 34395 hPa Calm   7.7 km/h 78 % 0 mm
10:04 -5.4 °C -7.9 °C 34395 hPa Calm   10.3 km/h 75 % 0 mm
10:10 -5.4 °C -7.9 °C 34395 hPa ENE 7.6 km/h 12.9 km/h 75 % 0 mm
10:16 -5.2 °C -8.1 °C 34395 hPa SE 12.7 km/h 15.6 km/h 73 % 0 mm
10:22 -5.3 °C -8.2 °C 34395 hPa ESE 2.3 km/h 20.8 km/h 73 % 0 mm
10:28 -5.6 °C -8.5 °C 34405.1 hPa Calm   10.3 km/h 72 % 0 mm
10:34 -5.7 °C -8.4 °C 34405.1 hPa Calm   7.7 km/h 74 % 0 mm
10:40 -5.7 °C -8.3 °C 34405.1 hPa SSE 2.3 km/h 2.6 km/h 75 % 0 mm
10:46 -5.7 °C -8.3 °C 34405.1 hPa Calm   2.6 km/h 75 % 0 mm
10:52 -5.6 °C -8.3 °C 34405.1 hPa East 5.1 km/h 7.7 km/h 74 % 0 mm
10:58 -5.5 °C -8.8 °C 34405.1 hPa ESE 7.6 km/h 12.9 km/h 69 % 0 mm
11:04 -5.4 °C -8.8 °C 34405.1 hPa South 5.1 km/h 12.9 km/h 69 % 0 mm
11:10 -5.3 °C -9.1 °C 34395 hPa Calm   7.7 km/h 66 % 0 mm
11:16 -5.1 °C -8.7 °C 34405.1 hPa SSW 5.1 km/h 12.9 km/h 67 % 0 mm
11:22 -5.1 °C -8.9 °C 34395 hPa SSW 2.3 km/h 10.3 km/h 65 % 0 mm
11:28 -5 °C -8.8 °C 34405.1 hPa South 2.3 km/h 7.7 km/h 65 % 0 mm
11:34 -4.9 °C -8.9 °C 34405.1 hPa SE 5.1 km/h 10.3 km/h 64 % 0 mm
11:40 -4.8 °C -8.9 °C 34405.1 hPa SW 7.6 km/h 12.9 km/h 63 % 0 mm
11:46 -4.5 °C -8.9 °C 34405.1 hPa Calm   7.7 km/h 61 % 0 mm
11:52 -4.2 °C -8.9 °C 34405.1 hPa Calm   10.3 km/h 59 % 0 mm
11:58 -3.9 °C -8.8 °C 34405.1 hPa ESE 7.6 km/h 10.3 km/h 58 % 0 mm
12:04 -3.8 °C -8.9 °C 34405.1 hPa East 7.6 km/h 18.2 km/h 57 % 0 mm
12:10 -3.9 °C -8.8 °C 34405.1 hPa ENE 10.3 km/h 15.6 km/h 58 % 0 mm
12:16 -4.3 °C -8.7 °C 34405.1 hPa ESE 7.6 km/h 15.6 km/h 61 % 0 mm
12:22 -4.6 °C -8.6 °C 34405.1 hPa East 2.3 km/h 7.7 km/h 64 % 0 mm
12:28 -4.7 °C -8.4 °C 34405.1 hPa East 7.6 km/h 15.6 km/h 66 % 0 mm
12:34 -4.7 °C -8.4 °C 34405.1 hPa East 5.1 km/h 12.9 km/h 66 % 0 mm
12:40 -4.7 °C -9.1 °C 34395 hPa ENE 12.7 km/h 15.6 km/h 61 % 0 mm
12:46 -4.7 °C -9 °C 34395 hPa East 10.3 km/h 28.5 km/h 62 % 0 mm
12:52 -4.8 °C -9.2 °C 34395 hPa East 5.1 km/h 10.3 km/h 61 % 0 mm
12:59 -4.6 °C -9.2 °C 34405.1 hPa SE 5.1 km/h 15.6 km/h 60 % 0 mm
13:05 -4.5 °C -8.8 °C 34405.1 hPa SE 7.6 km/h 23.3 km/h 62 % 0 mm
13:11 -4.5 °C -8.9 °C 34405.1 hPa ESE 7.6 km/h 10.3 km/h 61 % 0 mm
13:17 -4.4 °C -8.7 °C 34405.1 hPa ESE 7.6 km/h 12.9 km/h 62 % 0 mm
13:23 -4.3 °C -8.3 °C 34405.1 hPa ESE 5.1 km/h 10.3 km/h 64 % 0 mm
13:29 -4.6 °C -8.8 °C 34395 hPa ENE 5.1 km/h 15.6 km/h 62 % 0 mm
13:35 -4.7 °C -8.9 °C 34384.8 hPa ENE 7.6 km/h 18.2 km/h 63 % 0 mm
13:41 -4.8 °C -8.8 °C 34384.8 hPa ENE 15.6 km/h 25.9 km/h 64 % 0 mm
13:47 -4.7 °C -9 °C 34384.8 hPa ESE 2.3 km/h 25.9 km/h 62 % 0 mm
13:53 -4.6 °C -9.1 °C 34384.8 hPa East 5.1 km/h 5.1 km/h 61 % 0 mm
13:59 -4.6 °C -9.1 °C 34384.8 hPa ENE 10.3 km/h 12.9 km/h 61 % 0 mm
14:05 -4.5 °C -8.5 °C 34371.3 hPa NE 10.3 km/h 15.6 km/h 64 % 0 mm
14:11 -4.5 °C -8.5 °C 34384.8 hPa ENE 15.6 km/h 28.5 km/h 64 % 0 mm
14:17 -4.4 °C -9.2 °C 34384.8 hPa East 5.1 km/h 20.8 km/h 59 % 0 mm
14:23 -4.5 °C -9.4 °C 34384.8 hPa East 2.3 km/h 20.8 km/h 58 % 0 mm
14:29 -4.6 °C -9.6 °C 34371.3 hPa ENE 15.6 km/h 20.8 km/h 57 % 0 mm
14:35 -4.7 °C -9.4 °C 34371.3 hPa East 15.6 km/h 20.8 km/h 59 % 0 mm
14:41 -4.6 °C -9 °C 34371.3 hPa ENE 7.6 km/h 15.6 km/h 61 % 0 mm
14:47 -4.2 °C -8.9 °C 34371.3 hPa East 15.6 km/h 18.2 km/h 59 % 0 mm
14:53 -4.1 °C -9.2 °C 34371.3 hPa SE 15.6 km/h 23.3 km/h 57 % 0 mm
14:59 -4 °C -9.4 °C 34371.3 hPa SE 5.1 km/h 23.3 km/h 55 % 0 mm
15:05 -3.7 °C -8.9 °C 34371.3 hPa SE 2.3 km/h 20.8 km/h 56 % 0 mm
15:11 -3.6 °C -9.1 °C 34371.3 hPa ENE 17.9 km/h 31.1 km/h 54 % 0 mm
15:17 -3.6 °C -9.4 °C 34347.6 hPa ENE 15.6 km/h 31.1 km/h 52 % 0 mm
15:23 -3.4 °C -9.3 °C 34347.6 hPa ENE 28.5 km/h 31.1 km/h 52 % 0 mm
Meteo18
Compliments of Weather Underground - 4 mb

Script developed by  Jim McMurry - jmcmurry@mwt.net Adapted for the template by  Wim van der Kuil - Leuven-Template.eu

You find our weather info also at:

European Weather Network

Weather Underground

Equipment we use:

Weather-station
Davis Vue

Weather-program
Meteobridge

Weather-server
Raspberry PI 2 B+

Provider
1 and 1

Davis Vue

Meteobridge

Raspberry PI 2 B+

1 and 1